首页
METAR-TAF:

METAR-TAF

机场 :

羅馬-菲烏米奇諾機場

罗马菲乌米奇诺, 意大利

纬度: 41-48N, 经度: 012-14E, 海拔: 2米

当前天气观测

该预报发布于21分钟前的06:50 UTC
风速3节,风向,在南转南东南转西南之间变化
温度 15°C
湿度 94%
气压 1004 hPa
能见度10公里或以上
散云层高于1000英尺
散云层高于3500英尺
多云层高于5300英尺

METAR: LIRF 190650Z 18003KT 150V210 9999 SCT010 SCT035 BKN053 15/14 Q1004 RESHRA 88 8 9 01 / TEMPO 4000 TSRA

时间: 09:11 (07:11 UTC)

预报

该预报发布于1小时和53分钟前的05:18 UTC
预报有效从19日的 06点(UTC)到 20日的 12点(UTC)
风速7节,风向东南
能见度10公里或以上
散云层高于3000英尺
短暂存在
从 19日的 06点(UTC)到 19日的 11点(UTC)
能見度: 4000
雷暴, 雨
成为
从 19日的 08点(UTC)到 19日的 10点(UTC)
风速14节,风向西转西南
短暂存在
从 19日的 11点(UTC)到 19日的 15点(UTC)
能見度: 4000
阵雨
成为
从 19日的 19点(UTC)到 19日的 21点(UTC)
风速8节,风向南转南东
短暂存在
从 20日的 06点(UTC)到 20日的 12点(UTC)
能見度: 4000
阵雨
成为
从 20日的 09点(UTC)到 20日的 11点(UTC)
风速12节,风向南转西南

TAF: LIRF 190518Z 1906/2012 13007KT 9999 SCT030 TEMPO 1906/1911 4000 TSRA BECMG 1908/1910 24014KT TEMPO 1911/1915 4000 SHRA BECMG 1919/1921 15008KT TEMPO 2006/2012 4000 SHRA BECMG 2009/2011 21012KT

超过4000个机场的气象观测和天气预报(METAR&TAF报告)。

可查询的气象台以黄色和红色小点在地图上表示。

将鼠标移到小点上方,可查看气象台名称。

然后点击查看天气观测和预报。

如需切换地图:点击带黑十字的绿色按钮放大地图;点击带横线的绿色按钮缩小地图;或者点击绿色箭头查看邻近地区的地图。


METAR-TAF: